sensor_id;sensor_type;location;lat;lon;timestamp;P1;durP1;ratioP1;P2;durP2;ratioP2
32321;SDS011;61553;48.994;8.940;2022-08-05T00:02:02;5.72;;;2.63;;
32321;SDS011;61553;48.994;8.940;2022-08-05T00:04:28;5.85;;;2.78;;
32321;SDS011;61553;48.994;8.940;2022-08-05T00:06:53;13.02;;;2.90;;
32321;SDS011;61553;48.994;8.940;2022-08-05T00:09:19;5.45;;;2.60;;
32321;SDS011;61553;48.994;8.940;2022-08-05T00:11:44;8.85;;;2.85;;
32321;SDS011;61553;48.994;8.940;2022-08-05T00:14:11;6.47;;;2.80;;
32321;SDS011;61553;48.994;8.940;2022-08-05T00:16:36;5.35;;;2.63;;
32321;SDS011;61553;48.994;8.940;2022-08-05T00:19:02;7.00;;;3.00;;
32321;SDS011;61553;48.994;8.940;2022-08-05T00:21:28;4.05;;;2.70;;
32321;SDS011;61553;48.994;8.940;2022-08-05T00:23:54;9.32;;;2.85;;
32321;SDS011;61553;48.994;8.940;2022-08-05T00:26:20;7.55;;;2.85;;
32321;SDS011;61553;48.994;8.940;2022-08-05T00:28:46;4.40;;;2.50;;
32321;SDS011;61553;48.994;8.940;2022-08-05T00:31:11;6.50;;;2.75;;
32321;SDS011;61553;48.994;8.940;2022-08-05T00:33:38;7.32;;;3.10;;
32321;SDS011;61553;48.994;8.940;2022-08-05T00:36:03;3.90;;;2.60;;
32321;SDS011;61553;48.994;8.940;2022-08-05T00:38:29;7.35;;;2.58;;
32321;SDS011;61553;48.994;8.940;2022-08-05T00:40:55;9.55;;;2.90;;
32321;SDS011;61553;48.994;8.940;2022-08-05T00:43:23;9.93;;;3.00;;
32321;SDS011;61553;48.994;8.940;2022-08-05T00:45:49;10.40;;;2.60;;
32321;SDS011;61553;48.994;8.940;2022-08-05T00:48:18;6.35;;;2.53;;
32321;SDS011;61553;48.994;8.940;2022-08-05T00:50:46;7.93;;;3.10;;
32321;SDS011;61553;48.994;8.940;2022-08-05T00:53:13;8.07;;;2.70;;
32321;SDS011;61553;48.994;8.940;2022-08-05T00:55:41;9.23;;;3.00;;
32321;SDS011;61553;48.994;8.940;2022-08-05T00:58:12;9.88;;;2.63;;
32321;SDS011;61553;48.994;8.940;2022-08-05T01:00:40;9.48;;;2.92;;
32321;SDS011;61553;48.994;8.940;2022-08-05T01:03:06;8.82;;;3.03;;
32321;SDS011;61553;48.994;8.940;2022-08-05T01:05:32;8.65;;;2.97;;
32321;SDS011;61553;48.994;8.940;2022-08-05T01:07:58;8.73;;;2.70;;
32321;SDS011;61553;48.994;8.940;2022-08-05T01:10:26;6.03;;;2.53;;
32321;SDS011;61553;48.994;8.940;2022-08-05T01:15:28;8.52;;;2.45;;
32321;SDS011;61553;48.994;8.940;2022-08-05T01:18:00;8.18;;;3.20;;
32321;SDS011;61553;48.994;8.940;2022-08-05T01:20:36;10.55;;;3.08;;
32321;SDS011;61553;48.994;8.940;2022-08-05T01:28:37;10.98;;;2.80;;
32321;SDS011;61553;48.994;8.940;2022-08-05T01:31:08;11.30;;;2.65;;
32321;SDS011;61553;48.994;8.940;2022-08-05T01:33:43;11.23;;;3.45;;
32321;SDS011;61553;48.994;8.940;2022-08-05T01:36:14;8.95;;;2.80;;
32321;SDS011;61553;48.994;8.940;2022-08-05T01:38:43;11.85;;;2.92;;
32321;SDS011;61553;48.994;8.940;2022-08-05T01:41:12;13.20;;;3.38;;
32321;SDS011;61553;48.994;8.940;2022-08-05T01:43:40;10.98;;;3.60;;
32321;SDS011;61553;48.994;8.940;2022-08-05T01:46:07;12.13;;;3.30;;
32321;SDS011;61553;48.994;8.940;2022-08-05T01:48:33;10.68;;;3.13;;
32321;SDS011;61553;48.994;8.940;2022-08-05T01:51:01;11.15;;;3.17;;
32321;SDS011;61553;48.994;8.940;2022-08-05T01:53:28;11.07;;;3.35;;
32321;SDS011;61553;48.994;8.940;2022-08-05T01:55:59;11.13;;;3.72;;
32321;SDS011;61553;48.994;8.940;2022-08-05T01:58:26;17.08;;;3.67;;
32321;SDS011;61553;48.994;8.940;2022-08-05T02:00:52;9.35;;;3.22;;
32321;SDS011;61553;48.994;8.940;2022-08-05T02:03:25;6.40;;;3.40;;
32321;SDS011;61553;48.994;8.940;2022-08-05T02:06:01;9.90;;;3.58;;
32321;SDS011;61553;48.994;8.940;2022-08-05T02:08:29;13.38;;;3.70;;
32321;SDS011;61553;48.994;8.940;2022-08-05T02:10:58;9.40;;;3.58;;
32321;SDS011;61553;48.994;8.940;2022-08-05T02:13:43;8.20;;;3.83;;
32321;SDS011;61553;48.994;8.940;2022-08-05T02:16:20;13.00;;;3.92;;
32321;SDS011;61553;48.994;8.940;2022-08-05T02:18:55;10.15;;;4.68;;
32321;SDS011;61553;48.994;8.940;2022-08-05T02:21:29;12.43;;;3.92;;
32321;SDS011;61553;48.994;8.940;2022-08-05T02:24:01;15.40;;;4.20;;
32321;SDS011;61553;48.994;8.940;2022-08-05T02:26:37;14.15;;;3.53;;
32321;SDS011;61553;48.994;8.940;2022-08-05T02:29:07;7.03;;;3.20;;
32321;SDS011;61553;48.994;8.940;2022-08-05T02:31:36;9.27;;;3.53;;
32321;SDS011;61553;48.994;8.940;2022-08-05T02:34:06;8.63;;;3.65;;
32321;SDS011;61553;48.994;8.940;2022-08-05T02:36:34;9.13;;;4.05;;
32321;SDS011;61553;48.994;8.940;2022-08-05T02:39:02;9.20;;;3.67;;
32321;SDS011;61553;48.994;8.940;2022-08-05T02:41:29;20.27;;;5.18;;
32321;SDS011;61553;48.994;8.940;2022-08-05T02:43:57;10.55;;;4.50;;
32321;SDS011;61553;48.994;8.940;2022-08-05T02:46:24;11.88;;;4.13;;
32321;SDS011;61553;48.994;8.940;2022-08-05T02:48:52;8.25;;;3.72;;
32321;SDS011;61553;48.994;8.940;2022-08-05T02:51:19;9.57;;;3.95;;
32321;SDS011;61553;48.994;8.940;2022-08-05T02:53:45;11.00;;;4.00;;
32321;SDS011;61553;48.994;8.940;2022-08-05T02:56:12;8.27;;;4.35;;
32321;SDS011;61553;48.994;8.940;2022-08-05T02:58:39;16.20;;;4.90;;
32321;SDS011;61553;48.994;8.940;2022-08-05T03:01:06;7.22;;;3.50;;
32321;SDS011;61553;48.994;8.940;2022-08-05T03:03:37;7.70;;;4.35;;
32321;SDS011;61553;48.994;8.940;2022-08-05T03:06:04;10.50;;;3.78;;
32321;SDS011;61553;48.994;8.940;2022-08-05T03:08:31;13.25;;;4.00;;
32321;SDS011;61553;48.994;8.940;2022-08-05T03:10:58;9.93;;;4.65;;
32321;SDS011;61553;48.994;8.940;2022-08-05T03:13:24;10.38;;;4.07;;
32321;SDS011;61553;48.994;8.940;2022-08-05T03:15:49;8.00;;;3.88;;
32321;SDS011;61553;48.994;8.940;2022-08-05T03:18:15;7.45;;;3.75;;
32321;SDS011;61553;48.994;8.940;2022-08-05T03:20:40;7.38;;;3.67;;
32321;SDS011;61553;48.994;8.940;2022-08-05T03:23:07;9.57;;;4.07;;
32321;SDS011;61553;48.994;8.940;2022-08-05T03:25:35;9.93;;;3.92;;
32321;SDS011;61553;48.994;8.940;2022-08-05T03:28:02;11.23;;;3.78;;
32321;SDS011;61553;48.994;8.940;2022-08-05T03:30:31;11.77;;;4.10;;
32321;SDS011;61553;48.994;8.940;2022-08-05T03:32:57;9.80;;;4.18;;
32321;SDS011;61553;48.994;8.940;2022-08-05T03:35:25;9.57;;;4.63;;
32321;SDS011;61553;48.994;8.940;2022-08-05T03:37:52;10.15;;;4.95;;
32321;SDS011;61553;48.994;8.940;2022-08-05T03:40:22;13.30;;;5.05;;
32321;SDS011;61553;48.994;8.940;2022-08-05T03:42:48;8.30;;;4.10;;
32321;SDS011;61553;48.994;8.940;2022-08-05T03:45:13;10.20;;;4.50;;
32321;SDS011;61553;48.994;8.940;2022-08-05T03:47:39;11.52;;;4.40;;
32321;SDS011;61553;48.994;8.940;2022-08-05T03:50:05;9.55;;;3.92;;
32321;SDS011;61553;48.994;8.940;2022-08-05T03:52:32;11.85;;;4.32;;
32321;SDS011;61553;48.994;8.940;2022-08-05T03:55:03;9.25;;;4.18;;
32321;SDS011;61553;48.994;8.940;2022-08-05T03:57:35;8.07;;;3.70;;
32321;SDS011;61553;48.994;8.940;2022-08-05T04:02:31;8.73;;;4.07;;
32321;SDS011;61553;48.994;8.940;2022-08-05T04:04:58;9.77;;;4.45;;
32321;SDS011;61553;48.994;8.940;2022-08-05T04:07:25;9.45;;;4.60;;
32321;SDS011;61553;48.994;8.940;2022-08-05T04:09:52;7.80;;;4.07;;
32321;SDS011;61553;48.994;8.940;2022-08-05T04:12:18;10.75;;;4.63;;
32321;SDS011;61553;48.994;8.940;2022-08-05T04:14:44;9.00;;;4.13;;
32321;SDS011;61553;48.994;8.940;2022-08-05T04:17:10;7.25;;;4.10;;
32321;SDS011;61553;48.994;8.940;2022-08-05T04:19:43;8.20;;;4.18;;
32321;SDS011;61553;48.994;8.940;2022-08-05T04:22:10;12.38;;;4.63;;
32321;SDS011;61553;48.994;8.940;2022-08-05T04:24:36;7.00;;;4.55;;
32321;SDS011;61553;48.994;8.940;2022-08-05T04:27:06;7.22;;;4.32;;
32321;SDS011;61553;48.994;8.940;2022-08-05T04:29:31;10.70;;;5.20;;
32321;SDS011;61553;48.994;8.940;2022-08-05T04:31:57;10.10;;;4.63;;
32321;SDS011;61553;48.994;8.940;2022-08-05T04:34:23;7.40;;;4.15;;
32321;SDS011;61553;48.994;8.940;2022-08-05T04:36:49;8.43;;;4.50;;
32321;SDS011;61553;48.994;8.940;2022-08-05T04:39:14;10.55;;;4.95;;
32321;SDS011;61553;48.994;8.940;2022-08-05T04:41:40;11.00;;;5.18;;
32321;SDS011;61553;48.994;8.940;2022-08-05T04:44:05;10.10;;;4.78;;
32321;SDS011;61553;48.994;8.940;2022-08-05T04:46:31;15.88;;;4.20;;
32321;SDS011;61553;48.994;8.940;2022-08-05T04:48:57;11.18;;;5.40;;
32321;SDS011;61553;48.994;8.940;2022-08-05T04:51:22;11.95;;;4.90;;
32321;SDS011;61553;48.994;8.940;2022-08-05T04:53:48;14.35;;;5.65;;
32321;SDS011;61553;48.994;8.940;2022-08-05T04:56:14;14.93;;;5.70;;
32321;SDS011;61553;48.994;8.940;2022-08-05T04:58:40;7.50;;;5.18;;
32321;SDS011;61553;48.994;8.940;2022-08-05T05:01:06;10.80;;;6.00;;
32321;SDS011;61553;48.994;8.940;2022-08-05T05:03:31;13.57;;;5.90;;
32321;SDS011;61553;48.994;8.940;2022-08-05T05:05:57;9.45;;;5.53;;
32321;SDS011;61553;48.994;8.940;2022-08-05T05:08:23;11.93;;;6.15;;
32321;SDS011;61553;48.994;8.940;2022-08-05T05:10:48;12.63;;;6.32;;
32321;SDS011;61553;48.994;8.940;2022-08-05T05:13:14;11.27;;;5.55;;
32321;SDS011;61553;48.994;8.940;2022-08-05T05:15:41;15.88;;;6.75;;
32321;SDS011;61553;48.994;8.940;2022-08-05T05:18:07;11.68;;;5.70;;
32321;SDS011;61553;48.994;8.940;2022-08-05T05:20:34;12.00;;;5.43;;
32321;SDS011;61553;48.994;8.940;2022-08-05T05:23:00;10.60;;;6.15;;
32321;SDS011;61553;48.994;8.940;2022-08-05T05:25:28;10.82;;;4.90;;
32321;SDS011;61553;48.994;8.940;2022-08-05T05:27:54;8.10;;;4.18;;
32321;SDS011;61553;48.994;8.940;2022-08-05T05:30:21;8.73;;;4.38;;
32321;SDS011;61553;48.994;8.940;2022-08-05T05:32:47;9.52;;;4.82;;
32321;SDS011;61553;48.994;8.940;2022-08-05T05:35:13;12.23;;;4.80;;
32321;SDS011;61553;48.994;8.940;2022-08-05T05:37:50;14.00;;;4.68;;
32321;SDS011;61553;48.994;8.940;2022-08-05T05:40:24;10.30;;;5.18;;
32321;SDS011;61553;48.994;8.940;2022-08-05T05:42:52;10.85;;;4.82;;
32321;SDS011;61553;48.994;8.940;2022-08-05T05:45:18;9.90;;;4.90;;
32321;SDS011;61553;48.994;8.940;2022-08-05T05:47:44;9.60;;;4.95;;
32321;SDS011;61553;48.994;8.940;2022-08-05T05:50:14;8.52;;;4.72;;
32321;SDS011;61553;48.994;8.940;2022-08-05T05:52:41;9.40;;;5.13;;
32321;SDS011;61553;48.994;8.940;2022-08-05T05:55:09;10.93;;;5.50;;
32321;SDS011;61553;48.994;8.940;2022-08-05T05:57:36;12.30;;;4.63;;
32321;SDS011;61553;48.994;8.940;2022-08-05T06:00:03;12.93;;;4.72;;
32321;SDS011;61553;48.994;8.940;2022-08-05T06:02:31;9.48;;;5.32;;
32321;SDS011;61553;48.994;8.940;2022-08-05T06:04:56;6.47;;;4.57;;
32321;SDS011;61553;48.994;8.940;2022-08-05T06:07:22;9.80;;;4.72;;
32321;SDS011;61553;48.994;8.940;2022-08-05T06:09:48;11.38;;;4.88;;
32321;SDS011;61553;48.994;8.940;2022-08-05T06:12:13;8.40;;;4.38;;
32321;SDS011;61553;48.994;8.940;2022-08-05T06:14:39;7.88;;;4.63;;
32321;SDS011;61553;48.994;8.940;2022-08-05T06:17:08;11.05;;;4.75;;
32321;SDS011;61553;48.994;8.940;2022-08-05T06:19:34;7.30;;;4.38;;
32321;SDS011;61553;48.994;8.940;2022-08-05T06:22:01;5.53;;;3.75;;
32321;SDS011;61553;48.994;8.940;2022-08-05T06:24:31;8.10;;;3.67;;
32321;SDS011;61553;48.994;8.940;2022-08-05T06:26:58;12.50;;;3.97;;
32321;SDS011;61553;48.994;8.940;2022-08-05T06:29:23;8.07;;;3.50;;
32321;SDS011;61553;48.994;8.940;2022-08-05T06:31:49;5.57;;;3.08;;
32321;SDS011;61553;48.994;8.940;2022-08-05T06:34:15;8.00;;;2.97;;
32321;SDS011;61553;48.994;8.940;2022-08-05T06:36:40;6.78;;;3.67;;
32321;SDS011;61553;48.994;8.940;2022-08-05T06:39:06;5.80;;;3.53;;
32321;SDS011;61553;48.994;8.940;2022-08-05T06:41:32;10.88;;;4.35;;
32321;SDS011;61553;48.994;8.940;2022-08-05T06:43:57;6.85;;;3.97;;
32321;SDS011;61553;48.994;8.940;2022-08-05T06:46:24;12.50;;;4.28;;
32321;SDS011;61553;48.994;8.940;2022-08-05T06:48:49;12.05;;;4.68;;
32321;SDS011;61553;48.994;8.940;2022-08-05T06:51:18;10.65;;;4.38;;
32321;SDS011;61553;48.994;8.940;2022-08-05T06:53:44;5.57;;;3.60;;
32321;SDS011;61553;48.994;8.940;2022-08-05T06:56:09;9.30;;;4.38;;
32321;SDS011;61553;48.994;8.940;2022-08-05T06:58:35;8.57;;;4.50;;
32321;SDS011;61553;48.994;8.940;2022-08-05T07:01:01;12.32;;;4.55;;
32321;SDS011;61553;48.994;8.940;2022-08-05T07:03:28;7.60;;;3.95;;
32321;SDS011;61553;48.994;8.940;2022-08-05T07:05:54;8.23;;;4.55;;
32321;SDS011;61553;48.994;8.940;2022-08-05T07:08:20;8.57;;;4.63;;
32321;SDS011;61553;48.994;8.940;2022-08-05T07:10:52;6.85;;;3.60;;
32321;SDS011;61553;48.994;8.940;2022-08-05T07:13:18;8.93;;;4.30;;
32321;SDS011;61553;48.994;8.940;2022-08-05T07:16:02;9.48;;;4.10;;
32321;SDS011;61553;48.994;8.940;2022-08-05T07:18:46;8.35;;;4.47;;
32321;SDS011;61553;48.994;8.940;2022-08-05T07:21:12;7.60;;;3.92;;
32321;SDS011;61553;48.994;8.940;2022-08-05T07:23:38;6.53;;;3.30;;
32321;SDS011;61553;48.994;8.940;2022-08-05T07:26:03;7.00;;;3.50;;
32321;SDS011;61553;48.994;8.940;2022-08-05T07:28:29;8.35;;;3.67;;
32321;SDS011;61553;48.994;8.940;2022-08-05T07:30:55;9.43;;;4.13;;
32321;SDS011;61553;48.994;8.940;2022-08-05T07:33:22;10.20;;;3.75;;
32321;SDS011;61553;48.994;8.940;2022-08-05T07:35:47;5.55;;;3.58;;
32321;SDS011;61553;48.994;8.940;2022-08-05T07:38:13;7.32;;;3.13;;
32321;SDS011;61553;48.994;8.940;2022-08-05T07:40:39;7.70;;;3.38;;
32321;SDS011;61553;48.994;8.940;2022-08-05T07:43:05;8.27;;;4.05;;
32321;SDS011;61553;48.994;8.940;2022-08-05T07:45:31;9.32;;;3.75;;
32321;SDS011;61553;48.994;8.940;2022-08-05T07:47:57;7.88;;;3.80;;
32321;SDS011;61553;48.994;8.940;2022-08-05T07:50:23;4.28;;;3.00;;
32321;SDS011;61553;48.994;8.940;2022-08-05T07:52:49;7.47;;;4.13;;
32321;SDS011;61553;48.994;8.940;2022-08-05T07:55:15;9.68;;;3.55;;
32321;SDS011;61553;48.994;8.940;2022-08-05T07:57:40;8.13;;;3.13;;
32321;SDS011;61553;48.994;8.940;2022-08-05T08:00:07;10.18;;;4.88;;
32321;SDS011;61553;48.994;8.940;2022-08-05T08:02:33;6.57;;;3.15;;
32321;SDS011;61553;48.994;8.940;2022-08-05T08:05:00;7.82;;;3.50;;
32321;SDS011;61553;48.994;8.940;2022-08-05T08:07:25;6.97;;;3.03;;
32321;SDS011;61553;48.994;8.940;2022-08-05T08:09:52;7.28;;;2.92;;
32321;SDS011;61553;48.994;8.940;2022-08-05T08:12:18;7.45;;;3.10;;
32321;SDS011;61553;48.994;8.940;2022-08-05T08:14:45;4.82;;;2.45;;
32321;SDS011;61553;48.994;8.940;2022-08-05T08:17:10;4.00;;;2.58;;
32321;SDS011;61553;48.994;8.940;2022-08-05T08:19:36;7.53;;;2.88;;
32321;SDS011;61553;48.994;8.940;2022-08-05T08:22:03;5.95;;;2.95;;
32321;SDS011;61553;48.994;8.940;2022-08-05T08:24:29;5.13;;;2.58;;
32321;SDS011;61553;48.994;8.940;2022-08-05T08:26:55;6.60;;;2.60;;
32321;SDS011;61553;48.994;8.940;2022-08-05T08:29:20;6.35;;;2.40;;
32321;SDS011;61553;48.994;8.940;2022-08-05T08:31:46;5.53;;;2.60;;
32321;SDS011;61553;48.994;8.940;2022-08-05T08:34:12;4.20;;;2.28;;
32321;SDS011;61553;48.994;8.940;2022-08-05T08:36:38;5.90;;;2.45;;
32321;SDS011;61553;48.994;8.940;2022-08-05T08:39:04;5.38;;;2.60;;
32321;SDS011;61553;48.994;8.940;2022-08-05T08:41:31;5.07;;;2.30;;
32321;SDS011;61553;48.994;8.940;2022-08-05T08:43:58;5.32;;;2.50;;
32321;SDS011;61553;48.994;8.940;2022-08-05T08:46:30;5.75;;;2.72;;
32321;SDS011;61553;48.994;8.940;2022-08-05T08:48:56;4.95;;;2.10;;
32321;SDS011;61553;48.994;8.940;2022-08-05T08:51:23;3.78;;;2.08;;
32321;SDS011;61553;48.994;8.940;2022-08-05T08:53:51;4.07;;;1.98;;
32321;SDS011;61553;48.994;8.940;2022-08-05T08:56:17;4.05;;;2.00;;
32321;SDS011;61553;48.994;8.940;2022-08-05T08:58:45;3.05;;;2.00;;
32321;SDS011;61553;48.994;8.940;2022-08-05T09:01:11;4.53;;;2.40;;
32321;SDS011;61553;48.994;8.940;2022-08-05T09:03:37;4.82;;;2.35;;
32321;SDS011;61553;48.994;8.940;2022-08-05T09:06:04;3.13;;;2.03;;
32321;SDS011;61553;48.994;8.940;2022-08-05T09:08:30;3.75;;;2.00;;
32321;SDS011;61553;48.994;8.940;2022-08-05T09:10:56;2.83;;;1.60;;
32321;SDS011;61553;48.994;8.940;2022-08-05T09:13:22;6.80;;;2.35;;
32321;SDS011;61553;48.994;8.940;2022-08-05T09:15:48;6.72;;;2.03;;
32321;SDS011;61553;48.994;8.940;2022-08-05T09:18:13;5.00;;;2.08;;
32321;SDS011;61553;48.994;8.940;2022-08-05T09:20:39;3.53;;;1.88;;
32321;SDS011;61553;48.994;8.940;2022-08-05T09:23:11;4.00;;;2.17;;
32321;SDS011;61553;48.994;8.940;2022-08-05T09:25:42;3.08;;;2.03;;
32321;SDS011;61553;48.994;8.940;2022-08-05T09:30:43;2.95;;;1.80;;
32321;SDS011;61553;48.994;8.940;2022-08-05T09:33:15;4.20;;;2.00;;
32321;SDS011;61553;48.994;8.940;2022-08-05T09:35:51;4.90;;;2.10;;
32321;SDS011;61553;48.994;8.940;2022-08-05T09:38:23;5.15;;;2.10;;
32321;SDS011;61553;48.994;8.940;2022-08-05T09:40:49;5.07;;;2.00;;
32321;SDS011;61553;48.994;8.940;2022-08-05T09:43:27;3.78;;;1.63;;
32321;SDS011;61553;48.994;8.940;2022-08-05T09:45:57;3.10;;;1.70;;
32321;SDS011;61553;48.994;8.940;2022-08-05T09:48:30;4.32;;;1.80;;
32321;SDS011;61553;48.994;8.940;2022-08-05T09:50:59;6.05;;;1.92;;
32321;SDS011;61553;48.994;8.940;2022-08-05T09:53:51;4.25;;;1.40;;
32321;SDS011;61553;48.994;8.940;2022-08-05T09:56:27;3.80;;;1.60;;
32321;SDS011;61553;48.994;8.940;2022-08-05T09:58:58;5.37;;;1.60;;
32321;SDS011;61553;48.994;8.940;2022-08-05T10:01:35;3.45;;;1.55;;
32321;SDS011;61553;48.994;8.940;2022-08-05T10:06:32;5.40;;;1.75;;
32321;SDS011;61553;48.994;8.940;2022-08-05T10:09:14;2.58;;;1.70;;
32321;SDS011;61553;48.994;8.940;2022-08-05T10:11:42;2.00;;;1.30;;
32321;SDS011;61553;48.994;8.940;2022-08-05T10:14:28;3.13;;;1.70;;
32321;SDS011;61553;48.994;8.940;2022-08-05T10:16:56;3.45;;;1.77;;
32321;SDS011;61553;48.994;8.940;2022-08-05T10:19:37;5.25;;;1.70;;
32321;SDS011;61553;48.994;8.940;2022-08-05T10:22:03;2.65;;;1.60;;
32321;SDS011;61553;48.994;8.940;2022-08-05T10:24:29;3.00;;;1.75;;
32321;SDS011;61553;48.994;8.940;2022-08-05T10:26:57;4.70;;;1.73;;
32321;SDS011;61553;48.994;8.940;2022-08-05T10:29:24;2.92;;;1.50;;
32321;SDS011;61553;48.994;8.940;2022-08-05T10:31:56;3.30;;;1.75;;
32321;SDS011;61553;48.994;8.940;2022-08-05T10:34:22;3.85;;;1.90;;
32321;SDS011;61553;48.994;8.940;2022-08-05T10:36:47;3.67;;;1.77;;
32321;SDS011;61553;48.994;8.940;2022-08-05T10:39:16;3.65;;;1.67;;
32321;SDS011;61553;48.994;8.940;2022-08-05T10:41:52;3.65;;;1.95;;
32321;SDS011;61553;48.994;8.940;2022-08-05T10:44:20;2.83;;;1.40;;
32321;SDS011;61553;48.994;8.940;2022-08-05T10:46:51;2.55;;;1.63;;
32321;SDS011;61553;48.994;8.940;2022-08-05T10:49:18;5.77;;;1.77;;
32321;SDS011;61553;48.994;8.940;2022-08-05T10:51:47;3.78;;;1.98;;
32321;SDS011;61553;48.994;8.940;2022-08-05T10:54:14;4.30;;;1.92;;
32321;SDS011;61553;48.994;8.940;2022-08-05T10:56:45;2.05;;;1.48;;
32321;SDS011;61553;48.994;8.940;2022-08-05T10:59:16;4.35;;;2.00;;
32321;SDS011;61553;48.994;8.940;2022-08-05T11:01:43;6.88;;;2.10;;
32321;SDS011;61553;48.994;8.940;2022-08-05T11:04:10;3.38;;;1.90;;
32321;SDS011;61553;48.994;8.940;2022-08-05T11:07:02;6.25;;;2.13;;
32321;SDS011;61553;48.994;8.940;2022-08-05T11:09:37;4.22;;;1.75;;
32321;SDS011;61553;48.994;8.940;2022-08-05T11:12:41;3.78;;;2.00;;
32321;SDS011;61553;48.994;8.940;2022-08-05T11:17:34;5.32;;;2.28;;
32321;SDS011;61553;48.994;8.940;2022-08-05T11:20:07;4.93;;;2.08;;
32321;SDS011;61553;48.994;8.940;2022-08-05T11:22:53;5.45;;;2.28;;
32321;SDS011;61553;48.994;8.940;2022-08-05T11:31:19;3.80;;;2.05;;
32321;SDS011;61553;48.994;8.940;2022-08-05T11:33:39;3.55;;;1.98;;
32321;SDS011;61553;48.994;8.940;2022-08-05T11:36:38;3.83;;;1.80;;
32321;SDS011;61553;48.994;8.940;2022-08-05T11:39:11;5.75;;;1.88;;
32321;SDS011;61553;48.994;8.940;2022-08-05T11:41:39;5.35;;;2.38;;
32321;SDS011;61553;48.994;8.940;2022-08-05T11:49:20;3.67;;;2.03;;
32321;SDS011;61553;48.994;8.940;2022-08-05T11:51:50;5.70;;;2.00;;
32321;SDS011;61553;48.994;8.940;2022-08-05T11:54:21;3.42;;;2.08;;
32321;SDS011;61553;48.994;8.940;2022-08-05T11:56:51;3.20;;;2.10;;
32321;SDS011;61553;48.994;8.940;2022-08-05T11:59:25;6.18;;;2.22;;
32321;SDS011;61553;48.994;8.940;2022-08-05T12:01:56;4.80;;;1.92;;
32321;SDS011;61553;48.994;8.940;2022-08-05T12:04:36;7.75;;;2.40;;
32321;SDS011;61553;48.994;8.940;2022-08-05T12:07:06;4.63;;;1.88;;
32321;SDS011;61553;48.994;8.940;2022-08-05T12:09:37;4.05;;;1.90;;
32321;SDS011;61553;48.994;8.940;2022-08-05T12:12:06;2.88;;;1.73;;
32321;SDS011;61553;48.994;8.940;2022-08-05T12:14:36;2.47;;;1.67;;
32321;SDS011;61553;48.994;8.940;2022-08-05T12:17:07;4.22;;;1.85;;
32321;SDS011;61553;48.994;8.940;2022-08-05T12:20:07;4.88;;;2.25;;
32321;SDS011;61553;48.994;8.940;2022-08-05T12:22:26;2.80;;;1.92;;
32321;SDS011;61553;48.994;8.940;2022-08-05T12:24:53;3.35;;;1.92;;
32321;SDS011;61553;48.994;8.940;2022-08-05T12:27:23;4.63;;;1.90;;
32321;SDS011;61553;48.994;8.940;2022-08-05T12:30:23;5.55;;;2.30;;
32321;SDS011;61553;48.994;8.940;2022-08-05T12:32:45;3.95;;;2.05;;
32321;SDS011;61553;48.994;8.940;2022-08-05T12:35:17;4.55;;;2.40;;
32321;SDS011;61553;48.994;8.940;2022-08-05T12:37:44;3.47;;;2.15;;
32321;SDS011;61553;48.994;8.940;2022-08-05T12:40:11;2.38;;;1.60;;
32321;SDS011;61553;48.994;8.940;2022-08-05T12:42:37;7.90;;;2.63;;
32321;SDS011;61553;48.994;8.940;2022-08-05T12:45:07;3.85;;;2.33;;
32321;SDS011;61553;48.994;8.940;2022-08-05T12:47:34;4.93;;;2.25;;
32321;SDS011;61553;48.994;8.940;2022-08-05T12:50:11;5.45;;;2.08;;
32321;SDS011;61553;48.994;8.940;2022-08-05T12:52:40;3.10;;;2.00;;
32321;SDS011;61553;48.994;8.940;2022-08-05T12:55:21;4.25;;;1.80;;
32321;SDS011;61553;48.994;8.940;2022-08-05T12:57:52;4.90;;;2.50;;
32321;SDS011;61553;48.994;8.940;2022-08-05T13:00:23;4.28;;;2.15;;
32321;SDS011;61553;48.994;8.940;2022-08-05T13:02:53;3.72;;;2.20;;
32321;SDS011;61553;48.994;8.940;2022-08-05T13:05:20;4.40;;;1.88;;
32321;SDS011;61553;48.994;8.940;2022-08-05T13:07:47;3.45;;;2.13;;
32321;SDS011;61553;48.994;8.940;2022-08-05T13:10:13;4.90;;;2.42;;
32321;SDS011;61553;48.994;8.940;2022-08-05T13:12:40;3.13;;;2.22;;
32321;SDS011;61553;48.994;8.940;2022-08-05T13:15:08;4.13;;;2.25;;
32321;SDS011;61553;48.994;8.940;2022-08-05T13:17:36;4.45;;;2.30;;
32321;SDS011;61553;48.994;8.940;2022-08-05T13:22:47;3.80;;;2.00;;
32321;SDS011;61553;48.994;8.940;2022-08-05T13:25:15;3.42;;;1.83;;
32321;SDS011;61553;48.994;8.940;2022-08-05T13:27:42;4.03;;;2.10;;
32321;SDS011;61553;48.994;8.940;2022-08-05T13:30:15;4.38;;;2.20;;
32321;SDS011;61553;48.994;8.940;2022-08-05T13:32:42;4.82;;;2.00;;
32321;SDS011;61553;48.994;8.940;2022-08-05T13:35:12;3.60;;;2.05;;
32321;SDS011;61553;48.994;8.940;2022-08-05T13:37:38;4.72;;;2.10;;
32321;SDS011;61553;48.994;8.940;2022-08-05T13:40:04;3.40;;;1.88;;
32321;SDS011;61553;48.994;8.940;2022-08-05T13:42:31;4.18;;;2.13;;
32321;SDS011;61553;48.994;8.940;2022-08-05T13:44:56;4.22;;;2.40;;
32321;SDS011;61553;48.994;8.940;2022-08-05T13:47:23;4.70;;;2.25;;
32321;SDS011;61553;48.994;8.940;2022-08-05T13:49:49;3.72;;;2.05;;
32321;SDS011;61553;48.994;8.940;2022-08-05T13:52:16;4.05;;;1.70;;
32321;SDS011;61553;48.994;8.940;2022-08-05T13:54:47;3.53;;;1.75;;
32321;SDS011;61553;48.994;8.940;2022-08-05T13:57:13;5.35;;;2.10;;
32321;SDS011;61553;48.994;8.940;2022-08-05T13:59:40;2.75;;;1.90;;
32321;SDS011;61553;48.994;8.940;2022-08-05T14:02:07;3.95;;;2.30;;
32321;SDS011;61553;48.994;8.940;2022-08-05T14:04:41;8.98;;;2.78;;
32321;SDS011;61553;48.994;8.940;2022-08-05T14:09:53;7.35;;;2.88;;
32321;SDS011;61553;48.994;8.940;2022-08-05T14:12:19;6.75;;;2.80;;
32321;SDS011;61553;48.994;8.940;2022-08-05T14:14:45;4.80;;;2.55;;
32321;SDS011;61553;48.994;8.940;2022-08-05T14:17:10;5.75;;;2.80;;
32321;SDS011;61553;48.994;8.940;2022-08-05T14:19:37;5.70;;;3.35;;
32321;SDS011;61553;48.994;8.940;2022-08-05T14:22:03;7.40;;;3.00;;
32321;SDS011;61553;48.994;8.940;2022-08-05T14:24:29;5.70;;;3.15;;
32321;SDS011;61553;48.994;8.940;2022-08-05T14:26:54;9.38;;;3.10;;
32321;SDS011;61553;48.994;8.940;2022-08-05T14:29:20;5.57;;;2.97;;
32321;SDS011;61553;48.994;8.940;2022-08-05T14:31:46;7.93;;;3.10;;
32321;SDS011;61553;48.994;8.940;2022-08-05T14:34:11;5.20;;;3.25;;
32321;SDS011;61553;48.994;8.940;2022-08-05T14:36:37;5.78;;;3.05;;
32321;SDS011;61553;48.994;8.940;2022-08-05T14:39:03;8.32;;;2.97;;
32321;SDS011;61553;48.994;8.940;2022-08-05T14:41:30;5.68;;;3.25;;
32321;SDS011;61553;48.994;8.940;2022-08-05T14:43:56;6.35;;;3.30;;
32321;SDS011;61553;48.994;8.940;2022-08-05T14:46:22;5.05;;;3.13;;
32321;SDS011;61553;48.994;8.940;2022-08-05T14:48:50;5.95;;;3.15;;
32321;SDS011;61553;48.994;8.940;2022-08-05T14:51:16;9.25;;;3.00;;
32321;SDS011;61553;48.994;8.940;2022-08-05T14:53:42;8.27;;;2.90;;
32321;SDS011;61553;48.994;8.940;2022-08-05T14:56:08;7.82;;;3.15;;
32321;SDS011;61553;48.994;8.940;2022-08-05T14:58:33;5.95;;;3.33;;
32321;SDS011;61553;48.994;8.940;2022-08-05T15:00:59;4.88;;;3.20;;
32321;SDS011;61553;48.994;8.940;2022-08-05T15:03:28;6.47;;;3.10;;
32321;SDS011;61553;48.994;8.940;2022-08-05T15:05:54;6.50;;;3.05;;
32321;SDS011;61553;48.994;8.940;2022-08-05T15:08:20;6.30;;;3.20;;
32321;SDS011;61553;48.994;8.940;2022-08-05T15:10:46;5.25;;;2.80;;
32321;SDS011;61553;48.994;8.940;2022-08-05T15:13:11;5.78;;;2.92;;
32321;SDS011;61553;48.994;8.940;2022-08-05T15:15:37;4.70;;;3.08;;
32321;SDS011;61553;48.994;8.940;2022-08-05T15:18:03;6.00;;;2.85;;
32321;SDS011;61553;48.994;8.940;2022-08-05T15:20:29;6.45;;;2.90;;
32321;SDS011;61553;48.994;8.940;2022-08-05T15:22:55;4.78;;;2.97;;
32321;SDS011;61553;48.994;8.940;2022-08-05T15:25:21;5.47;;;2.70;;
32321;SDS011;61553;48.994;8.940;2022-08-05T15:27:47;5.28;;;3.13;;